createdAt,value
2022-08-03T00:01:48.445Z,18.23
2022-08-03T00:06:50.028Z,18.02
2022-08-03T00:11:51.568Z,18.17
2022-08-03T00:16:53.262Z,18.21
2022-08-03T00:21:54.809Z,18.10
2022-08-03T00:26:56.385Z,18.18
2022-08-03T00:31:59.446Z,18.15
2022-08-03T00:37:02.086Z,17.94
2022-08-03T00:42:04.983Z,17.97
2022-08-03T00:47:07.278Z,17.67
2022-08-03T00:52:12.443Z,17.42
2022-08-03T00:57:14.118Z,17.57
2022-08-03T01:02:15.841Z,17.10
2022-08-03T01:07:40.710Z,17.08
2022-08-03T01:12:50.336Z,17.00
2022-08-03T01:17:57.643Z,17.02
2022-08-03T01:23:30.386Z,16.95
2022-08-03T01:28:50.521Z,16.90
2022-08-03T01:33:58.334Z,16.83
2022-08-03T01:39:03.262Z,16.85
2022-08-03T01:44:29.139Z,16.81
2022-08-03T01:49:34.636Z,16.69
2022-08-03T01:54:43.218Z,16.69
2022-08-03T01:59:48.642Z,16.81
2022-08-03T02:04:52.525Z,16.66
2022-08-03T02:09:55.708Z,16.57
2022-08-03T02:15:00.042Z,16.58
2022-08-03T02:20:03.413Z,16.68
2022-08-03T02:25:05.366Z,16.46
2022-08-03T02:30:10.918Z,16.65
2022-08-03T02:35:16.987Z,16.56
2022-08-03T02:40:21.102Z,16.66
2022-08-03T02:45:26.321Z,16.86
2022-08-03T02:50:30.755Z,16.94
2022-08-03T02:55:35.474Z,17.09
2022-08-03T03:00:39.290Z,17.15
2022-08-03T03:05:53.534Z,17.26
2022-08-03T03:11:07.594Z,17.15
2022-08-03T03:16:11.898Z,17.04
2022-08-03T03:21:16.419Z,16.93
2022-08-03T03:26:20.139Z,16.78
2022-08-03T03:31:22.434Z,16.67
2022-08-03T03:36:24.131Z,16.70
2022-08-03T03:41:25.804Z,16.62
2022-08-03T03:46:29.462Z,16.41
2022-08-03T03:51:31.094Z,16.53
2022-08-03T03:56:33.214Z,16.53
2022-08-03T04:01:34.811Z,16.76
2022-08-03T04:06:55.052Z,16.81
2022-08-03T04:12:01.045Z,17.44
2022-08-03T04:17:07.282Z,17.37
2022-08-03T04:22:14.578Z,17.50
2022-08-03T04:27:23.411Z,17.61
2022-08-03T04:32:28.679Z,17.39
2022-08-03T04:37:40.046Z,17.26
2022-08-03T04:42:43.385Z,17.58
2022-08-03T04:47:45.397Z,17.60
2022-08-03T04:52:47.021Z,17.63
2022-08-03T04:57:48.602Z,17.86
2022-08-03T05:02:50.336Z,18.16
2022-08-03T05:07:56.361Z,18.46
2022-08-03T05:12:58.005Z,18.70
2022-08-03T05:17:59.856Z,18.84
2022-08-03T05:23:03.911Z,19.06
2022-08-03T05:28:05.576Z,19.20
2022-08-03T05:33:07.959Z,19.20
2022-08-03T05:38:09.657Z,19.40
2022-08-03T05:43:12.179Z,19.74
2022-08-03T05:48:13.759Z,19.86
2022-08-03T05:53:15.718Z,20.05
2022-08-03T05:58:17.356Z,20.15
2022-08-03T06:03:20.208Z,20.39
2022-08-03T06:08:28.009Z,20.54
2022-08-03T06:13:29.775Z,20.91
2022-08-03T06:18:31.495Z,21.15
2022-08-03T06:23:52.933Z,21.19
2022-08-03T06:28:55.288Z,21.55
2022-08-03T06:34:33.596Z,21.67
2022-08-03T06:39:18.656Z,21.86
2022-08-03T06:44:20.372Z,22.03
2022-08-03T06:49:22.176Z,22.39
2022-08-03T06:54:24.481Z,22.63
2022-08-03T07:00:09.789Z,22.73
2022-08-03T07:04:48.457Z,23.18
2022-08-03T07:09:55.718Z,23.71
2022-08-03T07:15:02.634Z,23.82
2022-08-03T07:20:07.368Z,24.38
2022-08-03T07:25:09.511Z,24.24
2022-08-03T07:30:11.436Z,23.87
2022-08-03T07:35:25.239Z,24.60
2022-08-03T07:40:30.692Z,24.69
2022-08-03T07:45:34.206Z,25.28
2022-08-03T07:50:35.929Z,25.05
2022-08-03T07:55:37.741Z,25.39
2022-08-03T08:00:39.686Z,25.21
2022-08-03T08:05:41.309Z,26.09
2022-08-03T08:10:42.885Z,25.54
2022-08-03T08:16:00.592Z,25.19
2022-08-03T08:21:03.465Z,25.42
2022-08-03T08:26:05.812Z,25.54
2022-08-03T08:31:07.852Z,25.93
2022-08-03T08:36:13.383Z,25.87
2022-08-03T08:41:17.307Z,26.01
2022-08-03T08:46:23.933Z,25.86
2022-08-03T08:51:59.476Z,26.91
2022-08-03T08:56:59.416Z,27.31
2022-08-03T09:02:01.254Z,27.57
2022-08-03T09:07:19.556Z,27.70
2022-08-03T09:12:42.183Z,27.54
2022-08-03T09:17:48.843Z,28.38
2022-08-03T09:22:56.569Z,28.17
2022-08-03T09:28:13.109Z,28.39
2022-08-03T09:33:47.170Z,28.61
2022-08-03T09:39:06.380Z,28.07
2022-08-03T09:44:08.416Z,28.44
2022-08-03T09:49:30.422Z,28.89
2022-08-03T09:54:32.773Z,29.10
2022-08-03T09:59:35.069Z,29.22
2022-08-03T10:04:48.018Z,28.53
2022-08-03T10:10:30.109Z,29.02
2022-08-03T10:16:23.664Z,29.34
2022-08-03T10:20:51.789Z,28.93
2022-08-03T10:26:01.959Z,29.78
2022-08-03T10:31:07.760Z,29.52
2022-08-03T10:36:10.935Z,29.61
2022-08-03T10:41:15.920Z,30.38
2022-08-03T10:46:21.256Z,30.03
2022-08-03T10:51:23.896Z,30.01
2022-08-03T10:56:53.546Z,30.13
2022-08-03T11:02:00.230Z,29.96
2022-08-03T11:07:23.723Z,29.79
2022-08-03T11:12:30.768Z,30.74
2022-08-03T11:17:55.710Z,30.87
2022-08-03T11:22:59.593Z,30.90
2022-08-03T11:28:27.752Z,30.40
2022-08-03T11:33:30.569Z,30.61
2022-08-03T11:38:32.240Z,30.28
2022-08-03T11:43:37.782Z,30.24
2022-08-03T11:48:43.229Z,30.34
2022-08-03T11:53:47.953Z,30.43
2022-08-03T11:59:00.984Z,31.20
2022-08-03T12:04:17.080Z,30.72
2022-08-03T12:09:21.349Z,30.79
2022-08-03T12:14:48.940Z,31.08
2022-08-03T12:19:45.257Z,31.59
2022-08-03T12:24:47.831Z,31.40
2022-08-03T12:29:58.432Z,31.50
2022-08-03T12:35:01.947Z,31.62
2022-08-03T12:40:10.543Z,31.81
2022-08-03T12:45:31.894Z,31.57
2022-08-03T12:50:36.764Z,31.76
2022-08-03T12:55:57.154Z,31.19
2022-08-03T13:01:01.662Z,31.67
2022-08-03T13:06:18.819Z,31.49
2022-08-03T13:11:57.270Z,31.96
2022-08-03T13:16:50.600Z,31.57
2022-08-03T13:21:53.424Z,31.59
2022-08-03T13:28:01.304Z,31.62
2022-08-03T13:32:29.115Z,31.83
2022-08-03T13:37:32.501Z,31.84
2022-08-03T13:42:36.309Z,32.06
2022-08-03T13:47:38.032Z,31.88
2022-08-03T13:52:39.691Z,31.76
2022-08-03T13:58:06.691Z,31.53
2022-08-03T14:03:12.278Z,31.72
2022-08-03T14:08:15.114Z,32.09
2022-08-03T14:13:18.031Z,31.62
2022-08-03T14:18:29.307Z,31.41
2022-08-03T14:23:37.858Z,31.59
2022-08-03T14:28:39.609Z,31.53
2022-08-03T14:33:41.346Z,31.42
2022-08-03T14:38:42.915Z,31.31
2022-08-03T14:44:00.415Z,31.37
2022-08-03T14:50:38.230Z,31.43
2022-08-03T14:54:26.873Z,30.84
2022-08-03T14:59:28.481Z,31.26
2022-08-03T15:04:50.125Z,31.41
2022-08-03T15:09:51.734Z,31.25
2022-08-03T15:14:53.303Z,31.54
2022-08-03T15:20:02.165Z,31.18
2022-08-03T15:26:30.292Z,30.79
2022-08-03T15:30:40.105Z,31.13
2022-08-03T15:35:41.724Z,31.03
2022-08-03T15:40:43.447Z,31.05
2022-08-03T15:45:45.136Z,30.84
2022-08-03T15:50:54.576Z,30.81
2022-08-03T15:55:56.258Z,30.79
2022-08-03T16:01:02.347Z,30.74
2022-08-03T16:06:07.066Z,30.88
2022-08-03T16:11:10.456Z,30.71
2022-08-03T16:16:13.110Z,30.61
2022-08-03T16:21:15.613Z,30.47
2022-08-03T16:26:22.223Z,30.57
2022-08-03T16:31:32.284Z,30.69
2022-08-03T16:36:35.136Z,30.74
2022-08-03T16:41:54.302Z,30.27
2022-08-03T16:47:02.505Z,30.21
2022-08-03T16:52:07.348Z,30.15
2022-08-03T16:57:08.960Z,30.09
2022-08-03T17:02:20.750Z,30.00
2022-08-03T17:07:30.322Z,29.98
2022-08-03T17:12:32.009Z,30.01
2022-08-03T17:17:37.558Z,29.82
2022-08-03T17:23:00.792Z,29.66
2022-08-03T17:28:49.512Z,29.54
2022-08-03T17:33:35.459Z,29.42
2022-08-03T17:38:39.930Z,29.29
2022-08-03T17:44:14.955Z,29.18
2022-08-03T17:49:24.982Z,29.01
2022-08-03T17:55:55.586Z,28.71
2022-08-03T18:00:28.625Z,28.70
2022-08-03T18:06:10.615Z,28.54
2022-08-03T18:11:21.700Z,28.48
2022-08-03T18:16:45.677Z,28.31
2022-08-03T18:22:03.590Z,28.14
2022-08-03T18:27:10.921Z,28.20
2022-08-03T18:32:16.813Z,27.88
2022-08-03T18:37:25.189Z,27.61
2022-08-03T18:42:28.600Z,27.70
2022-08-03T18:47:52.188Z,27.36
2022-08-03T18:53:03.603Z,27.15
2022-08-03T18:58:09.726Z,26.46
2022-08-03T19:03:24.559Z,25.91
2022-08-03T19:08:42.815Z,25.72
2022-08-03T19:13:50.188Z,25.55
2022-08-03T19:18:54.108Z,25.54
2022-08-03T19:23:59.777Z,25.35
2022-08-03T19:29:02.471Z,25.63
2022-08-03T19:34:04.873Z,25.32
2022-08-03T19:39:09.184Z,24.92
2022-08-03T19:44:20.152Z,24.84
2022-08-03T19:50:04.659Z,24.52
2022-08-03T19:54:54.038Z,24.29
2022-08-03T19:59:57.537Z,24.14
2022-08-03T20:05:00.518Z,24.06
2022-08-03T20:10:05.387Z,23.68
2022-08-03T20:15:07.882Z,23.67
2022-08-03T20:20:10.495Z,23.53
2022-08-03T20:25:16.227Z,23.27
2022-08-03T20:30:27.358Z,23.32
2022-08-03T20:35:29.143Z,23.02
2022-08-03T20:40:40.413Z,23.06
2022-08-03T20:46:00.915Z,22.88
2022-08-03T20:51:19.295Z,22.98
2022-08-03T21:01:27.683Z,22.56
2022-08-03T21:12:15.430Z,22.15
2022-08-03T21:13:12.685Z,22.29
2022-08-03T21:17:39.281Z,21.75
2022-08-03T21:22:49.642Z,21.59
2022-08-03T21:27:52.106Z,21.47
2022-08-03T21:33:08.091Z,21.34
2022-08-03T21:38:30.243Z,21.49
2022-08-03T21:43:34.531Z,21.42
2022-08-03T21:48:38.623Z,21.27
2022-08-03T21:54:04.516Z,21.10
2022-08-03T21:59:08.766Z,21.12
2022-08-03T22:04:50.266Z,21.08
2022-08-03T22:09:37.004Z,21.02
2022-08-03T22:14:39.103Z,20.87
2022-08-03T22:19:40.742Z,20.82
2022-08-03T22:24:52.624Z,21.01
2022-08-03T22:30:02.958Z,20.90
2022-08-03T22:35:07.602Z,20.67
2022-08-03T22:40:12.530Z,20.65
2022-08-03T22:46:06.474Z,20.49
2022-08-03T22:50:39.124Z,20.40
2022-08-03T22:55:40.982Z,20.34
2022-08-03T23:00:53.923Z,20.32
2022-08-03T23:06:02.104Z,20.20
2022-08-03T23:11:08.470Z,20.10
2022-08-03T23:16:10.430Z,20.21
2022-08-03T23:21:12.540Z,20.18
2022-08-03T23:26:17.998Z,20.12
2022-08-03T23:31:25.209Z,20.18
2022-08-03T23:36:30.431Z,20.18
2022-08-03T23:41:34.483Z,20.05
2022-08-03T23:46:37.507Z,20.10
2022-08-03T23:51:45.326Z,20.12
2022-08-03T23:57:05.528Z,19.91
